Time;durP1;ratioP1;P1;durP2;ratioP2;P2;SDS_P1;SDS_P2;PMS_P1;PMS_P2;Temp;Humidity;BMP_temperature;BMP_pressure;BME280_temperature;BME280_humidity;BME280_pressure;Samples;Min_cycle;Max_cycle;Signal;HPM_P1;HPM_P2
2023/12/22 00:00:40;;;;;;;8.63;2.50;;;7.30;91.60;;;9.00;61.17;99162.22;3083171;46;20518;-66
2023/12/22 00:03:08;;;;;;;7.50;2.57;;;7.40;91.40;;;9.03;60.97;99174.94;3083483;46;20476;-65
2023/12/22 00:05:37;;;;;;;8.03;2.20;;;7.40;91.30;;;9.05;60.63;99174.75;3083219;46;20442;-66
2023/12/22 00:08:06;;;;;;;7.13;2.17;;;7.40;91.20;;;9.01;60.52;99161.19;3082605;46;20467;-66
2023/12/22 00:10:34;;;;;;;5.67;2.03;;;7.40;91.10;;;9.00;60.71;99172.72;3083000;46;21036;-67
2023/12/22 00:13:03;;;;;;;9.23;2.20;;;7.50;91.20;;;8.98;60.89;99153.75;3082754;46;20510;-65
2023/12/22 00:15:31;;;;;;;6.97;2.23;;;7.40;91.20;;;8.97;60.79;99173.13;3082576;46;20999;-64
2023/12/22 00:17:59;;;;;;;9.57;2.77;;;7.40;91.30;;;8.99;60.93;99176.34;3082603;46;20500;-65
2023/12/22 00:20:27;;;;;;;6.87;2.50;;;7.40;91.20;;;8.99;60.41;99181.59;3083439;46;20428;-65
2023/12/22 00:22:56;;;;;;;11.93;2.27;;;7.40;91.20;;;8.99;60.90;99181.59;3083143;46;21092;-64
2023/12/22 00:25:24;;;;;;;8.37;1.87;;;7.40;91.20;;;8.99;60.70;99183.41;3082821;46;20463;-66
2023/12/22 00:27:53;;;;;;;10.63;1.87;;;7.40;91.00;;;8.96;60.67;99182.03;3082441;46;20467;-65
2023/12/22 00:30:21;;;;;;;8.50;2.00;;;7.40;91.00;;;8.94;60.48;99181.38;3082909;46;21011;-65
2023/12/22 00:32:50;;;;;;;7.53;1.63;;;7.40;90.90;;;8.93;60.19;99186.84;3082797;46;20492;-65
2023/12/22 00:35:18;;;;;;;10.73;2.10;;;7.40;90.80;;;8.91;60.10;99189.69;3082811;46;20428;-66
2023/12/22 00:37:47;;;;;;;5.00;1.93;;;7.40;90.40;;;8.89;59.99;99199.53;3082327;46;20484;-65
2023/12/22 00:40:15;;;;;;;8.20;1.97;;;7.30;90.20;;;8.88;59.57;99200.56;3082853;46;20456;-65
2023/12/22 00:42:44;;;;;;;7.07;2.33;;;7.30;90.00;;;8.86;59.58;99192.09;3082421;46;20456;-65
2023/12/22 00:45:12;;;;;;;9.03;2.10;;;7.30;90.10;;;8.84;59.27;99194.13;3082703;46;20428;-65
2023/12/22 00:47:41;;;;;;;6.67;2.07;;;7.30;90.10;;;8.82;59.70;99206.63;3082496;46;20455;-66
2023/12/22 00:50:09;;;;;;;7.67;2.43;;;7.30;90.10;;;8.76;59.39;99203.00;3082475;46;20526;-66
2023/12/22 00:52:38;;;;;;;5.83;1.87;;;7.30;90.20;;;8.74;59.67;99207.63;3082977;46;20431;-64
2023/12/22 00:55:06;;;;;;;5.43;1.80;;;7.20;90.30;;;8.75;59.84;99203.19;3082698;46;20427;-64
2023/12/22 00:57:35;;;;;;;4.43;1.57;;;7.20;90.40;;;8.77;59.75;99203.81;3081522;46;21018;-64
2023/12/22 01:00:05;;;;;;;10.37;1.70;;;7.20;90.50;;;8.77;59.95;99201.19;3082103;46;20553;-63
2023/12/22 01:02:34;;;;;;;4.33;1.70;;;7.20;90.60;;;8.79;59.73;99209.66;3082914;46;20455;-66
2023/12/22 01:05:02;;;;;;;4.50;1.53;;;7.20;90.50;;;8.78;59.73;99215.91;3081855;46;20546;-66
2023/12/22 01:07:31;;;;;;;4.77;2.03;;;7.20;90.60;;;8.78;59.58;99210.66;3082069;46;20459;-65
2023/12/22 01:10:01;;;;;;;8.80;2.57;;;7.10;90.50;;;8.78;59.97;99232.44;3082535;46;20452;-66
2023/12/22 01:12:30;;;;;;;8.07;1.93;;;7.20;90.70;;;8.79;59.97;99228.03;3082824;46;20488;-66
2023/12/22 01:14:59;;;;;;;9.03;2.43;;;7.20;90.80;;;8.79;59.93;99231.44;3082473;46;20443;-63
2023/12/22 01:17:28;;;;;;;5.83;2.00;;;7.20;90.90;;;8.75;59.76;99227.59;3082186;46;20444;-63
2023/12/22 01:19:56;;;;;;;7.13;1.90;;;7.10;90.90;;;8.72;60.46;99211.47;3082592;46;20581;-64
2023/12/22 01:22:25;;;;;;;8.63;2.70;;;7.10;91.10;;;8.68;60.55;99220.72;3082274;46;21023;-66
2023/12/22 01:24:53;;;;;;;9.70;2.73;;;7.10;91.20;;;8.62;60.46;99232.03;3082300;46;20451;-66
2023/12/22 01:27:21;;;;;;;12.70;2.73;;;7.10;91.20;;;8.58;60.79;99236.06;3081848;46;20439;-65
2023/12/22 01:29:50;;;;;;;11.43;2.93;;;7.00;91.10;;;8.57;61.02;99240.50;3082365;46;21016;-65
2023/12/22 01:32:19;;;;;;;9.90;3.07;;;7.00;91.30;;;8.59;61.07;99248.16;3082014;46;20431;-64
2023/12/22 01:34:47;;;;;;;12.50;2.27;;;7.00;91.40;;;8.61;60.96;99252.19;3082189;46;21019;-65
2023/12/22 01:37:16;;;;;;;8.63;2.20;;;7.00;91.30;;;8.62;61.20;99256.44;3081842;46;20566;-64
2023/12/22 01:39:44;;;;;;;11.63;2.63;;;7.00;91.40;;;8.63;61.00;99262.47;3081968;46;20435;-65
2023/12/22 01:42:12;;;;;;;11.87;2.30;;;7.00;91.40;;;8.62;61.04;99242.50;3081472;46;20472;-65
2023/12/22 01:44:41;;;;;;;11.93;1.93;;;7.00;91.50;;;8.64;61.04;99250.97;3082257;46;20553;-63
2023/12/22 01:47:09;;;;;;;8.07;2.33;;;7.00;91.50;;;8.64;61.07;99262.28;3081619;46;20479;-69
2023/12/22 01:49:38;;;;;;;5.70;1.93;;;7.10;91.60;;;8.65;60.84;99257.84;3081205;46;20427;-64
2023/12/22 01:52:07;;;;;;;7.90;1.87;;;7.00;91.50;;;8.64;61.19;99262.28;3081714;46;20431;-63
2023/12/22 01:54:36;;;;;;;7.33;2.10;;;7.00;91.60;;;8.68;61.26;99267.94;3082146;46;20463;-64
2023/12/22 01:57:05;;;;;;;8.00;2.33;;;7.00;91.50;;;8.71;60.75;99276.22;3084631;46;20476;-64
2023/12/22 01:59:34;;;;;;;6.90;1.80;;;7.00;91.30;;;8.73;60.92;99276.81;3082823;46;20471;-65
2023/12/22 02:02:03;;;;;;;7.23;1.73;;;7.10;91.40;;;8.78;60.88;99281.47;3081969;46;20524;-66
2023/12/22 02:04:32;;;;;;;10.43;2.00;;;7.10;91.30;;;8.82;60.67;99274.81;3082067;46;21058;-65
2023/12/22 02:07:03;;;;;;;4.23;1.53;;;7.10;91.00;;;8.83;60.34;99276.44;3081391;46;20541;-66
2023/12/22 02:09:31;;;;;;;5.90;1.67;;;7.10;90.90;;;8.82;59.86;99280.06;3080869;46;20444;-66
2023/12/22 02:11:59;;;;;;;4.23;1.20;;;7.20;90.60;;;8.79;59.73;99265.53;3082063;46;20439;-62
2023/12/22 02:14:28;;;;;;;2.50;0.97;;;7.10;90.40;;;8.75;58.67;99258.25;3082078;46;21076;-65
2023/12/22 02:17:22;;;;;;;2.73;0.80;;;7.10;89.70;;;8.68;58.80;99262.69;3081228;46;20577;-66
2023/12/22 02:19:51;;;;;;;4.67;0.90;;;7.10;89.70;;;8.62;59.18;99247.75;3080848;46;21014;-66
2023/12/22 02:22:19;;;;;;;2.90;0.93;;;7.10;89.50;;;8.59;58.83;99256.00;3081412;46;20477;-64
2023/12/22 02:24:48;;;;;;;2.47;1.07;;;7.00;89.40;;;8.56;59.32;99259.03;3080985;46;21008;-64
2023/12/22 02:27:47;;;;;;;2.60;1.20;;;7.00;89.60;;;8.55;59.07;99270.53;3081425;46;20440;-66
2023/12/22 02:31:24;;;;;;;4.63;1.37;;;7.00;89.90;;;8.50;59.68;99307.03;3081960;46;20986;-63
2023/12/22 02:33:56;;;;;;;3.13;1.10;;;7.00;90.70;;;8.47;60.43;99300.34;3080222;46;20436;-65
2023/12/22 02:36:28;;;;;;;4.53;1.47;;;6.90;91.50;;;8.43;60.84;99261.63;3080329;46;20424;-64
2023/12/22 02:38:59;;;;;;;5.20;1.67;;;6.80;91.30;;;8.38;60.83;99266.63;3081086;46;20553;-66
2023/12/22 02:41:28;;;;;;;5.13;1.60;;;6.90;91.30;;;8.36;61.21;99263.41;3080208;46;20431;-66
2023/12/22 02:43:57;;;;;;;7.00;1.50;;;6.80;91.60;;;8.33;61.36;99263.81;3081001;46;20493;-65
2023/12/22 02:46:25;;;;;;;4.40;1.17;;;6.80;91.60;;;8.30;61.73;99253.69;3081557;46;20573;-66
2023/12/22 02:48:53;;;;;;;4.70;1.47;;;6.80;91.80;;;8.28;61.53;99260.94;3081335;46;21004;-64
2023/12/22 02:51:22;;;;;;;6.13;1.53;;;6.80;91.90;;;8.25;62.23;99263.97;3081565;46;20435;-66
2023/12/22 02:53:50;;;;;;;8.83;1.80;;;6.70;92.10;;;8.20;62.41;99270.56;3081257;46;21015;-62
2023/12/22 02:56:19;;;;;;;10.60;2.50;;;6.70;92.10;;;8.18;62.24;99267.34;3081646;46;20434;-66
2023/12/22 02:58:47;;;;;;;7.73;2.17;;;6.70;92.00;;;8.15;62.22;99259.88;3080973;46;20439;-65
2023/12/22 03:01:16;;;;;;;8.50;2.00;;;6.70;92.00;;;8.13;62.17;99259.25;3080978;46;20448;-65
2023/12/22 03:03:44;;;;;;;7.13;2.00;;;6.70;91.90;;;8.12;62.25;99268.13;3081132;46;20517;-63
2023/12/22 03:06:13;;;;;;;10.17;1.97;;;6.60;91.70;;;8.11;61.97;99277.00;3081574;46;20514;-65
2023/12/22 03:08:41;;;;;;;11.30;2.70;;;6.60;91.70;;;8.10;61.93;99264.91;3080724;46;20576;-65
2023/12/22 03:11:09;;;;;;;9.70;2.20;;;6.60;91.60;;;8.10;62.08;99253.63;3080961;46;20427;-66
2023/12/22 03:13:38;;;;;;;6.17;2.50;;;6.60;91.60;;;8.07;61.94;99260.06;3081265;46;20497;-66
2023/12/22 03:16:09;;;;;;;6.37;2.43;;;6.60;91.50;;;8.08;62.02;99261.66;3081673;46;20427;-61
2023/12/22 03:18:39;;;;;;;9.00;2.33;;;6.60;91.50;;;8.10;62.01;99238.72;3080813;46;20568;-65
2023/12/22 03:21:07;;;;;;;7.70;2.57;;;6.60;91.60;;;8.14;61.96;99239.94;3083099;46;20458;-66
2023/12/22 03:23:36;;;;;;;12.83;2.17;;;6.60;91.50;;;8.20;61.51;99233.88;3083633;46;20452;-65
2023/12/22 03:26:04;;;;;;;8.17;2.57;;;6.60;91.40;;;8.28;61.55;99246.03;3084043;46;20460;-64
2023/12/22 03:28:33;;;;;;;11.03;2.90;;;6.60;91.30;;;8.36;61.24;99242.44;3083174;46;20442;-65
2023/12/22 03:31:02;;;;;;;11.53;2.77;;;6.70;91.20;;;8.45;60.81;99259.59;3083823;46;20549;-65
2023/12/22 03:33:31;;;;;;;11.50;2.80;;;6.70;91.10;;;8.49;60.57;99237.22;3083707;46;20428;-66
2023/12/22 03:35:59;;;;;;;9.73;2.60;;;6.80;91.40;;;8.49;60.99;99264.25;3083954;46;20431;-66
2023/12/22 03:38:28;;;;;;;12.63;2.87;;;6.80;91.60;;;8.46;61.31;99269.09;3082869;46;20442;-63
2023/12/22 03:40:56;;;;;;;12.10;2.40;;;6.80;91.60;;;8.44;61.46;99263.25;3083100;46;20427;-61
2023/12/22 03:43:24;;;;;;;5.93;2.30;;;6.80;91.70;;;8.41;61.69;99268.88;3083703;46;20472;-66
2023/12/22 03:45:53;;;;;;;5.70;2.10;;;6.80;91.70;;;8.35;61.55;99252.13;3083064;46;20603;-65
2023/12/22 03:48:21;;;;;;;10.53;3.00;;;6.80;91.60;;;8.29;61.78;99258.16;3082770;46;20477;-66
2023/12/22 03:51:02;;;;;;;8.07;2.40;;;6.80;91.60;;;8.23;61.69;99260.69;3082414;46;20428;-64
2023/12/22 03:53:31;;;;;;;6.47;1.70;;;6.80;91.60;;;8.16;61.97;99258.88;3082489;46;20555;-65
2023/12/22 03:55:59;;;;;;;7.43;2.00;;;6.70;91.60;;;8.12;61.96;99262.91;3082372;46;20427;-66
2023/12/22 03:58:29;;;;;;;7.20;1.83;;;6.70;91.60;;;8.09;61.92;99242.31;3081504;46;21010;-65
2023/12/22 04:00:58;;;;;;;6.03;2.60;;;6.70;91.60;;;8.05;62.06;99235.88;3082358;46;20480;-65
2023/12/22 04:03:26;;;;;;;11.30;1.83;;;6.60;91.40;;;8.03;61.99;99229.97;3081870;46;21073;-66
2023/12/22 04:05:55;;;;;;;5.63;1.60;;;6.60;91.30;;;8.01;61.75;99239.84;3082100;46;20541;-65
2023/12/22 04:08:23;;;;;;;9.87;2.03;;;6.60;91.30;;;8.01;61.67;99221.50;3081605;46;20464;-65
2023/12/22 04:10:51;;;;;;;7.13;2.00;;;6.50;91.20;;;8.04;61.56;99218.50;3081934;46;20571;-66
2023/12/22 04:13:20;;;;;;;4.50;1.93;;;6.60;91.20;;;8.10;61.42;99219.56;3081838;46;20590;-66
2023/12/22 04:15:48;;;;;;;6.03;1.60;;;6.50;91.20;;;8.15;61.65;99220.56;3081484;46;21038;-65
2023/12/22 04:18:17;;;;;;;7.77;2.20;;;6.60;91.30;;;8.23;61.48;99232.69;3081186;46;20595;-65
2023/12/22 04:20:45;;;;;;;10.47;2.43;;;6.60;91.30;;;8.31;61.02;99236.97;3081920;46;20530;-64
2023/12/22 04:23:14;;;;;;;6.50;2.30;;;6.60;91.10;;;8.38;60.79;99256.16;3082340;46;20427;-63
2023/12/22 04:25:42;;;;;;;7.63;2.30;;;6.70;91.20;;;8.45;60.78;99263.03;3082814;46;20620;-63
2023/12/22 04:28:10;;;;;;;7.43;1.97;;;6.70;91.10;;;8.53;60.79;99276.00;3083015;46;20439;-63
2023/12/22 04:30:39;;;;;;;7.17;2.27;;;6.80;91.30;;;8.57;60.26;99245.72;3082724;46;20479;-67
2023/12/22 04:33:07;;;;;;;12.87;2.37;;;6.80;91.00;;;8.62;60.38;99255.63;3082850;46;20565;-65
2023/12/22 04:35:36;;;;;;;15.53;2.63;;;6.90;90.90;;;8.67;60.14;99266.31;3082829;46;20522;-66
2023/12/22 04:38:04;;;;;;;9.33;2.67;;;6.90;90.90;;;8.71;60.26;99270.16;3082319;46;20438;-65
2023/12/22 04:40:33;;;;;;;10.93;2.70;;;7.00;91.10;;;8.74;60.17;99282.88;3082971;46;20427;-66
2023/12/22 04:43:01;;;;;;;10.47;3.10;;;7.00;91.10;;;8.72;60.46;99277.03;3082079;46;20427;-65
2023/12/22 04:45:29;;;;;;;9.37;2.67;;;7.00;91.30;;;8.67;60.65;99289.94;3082304;46;20429;-66
2023/12/22 04:47:58;;;;;;;8.93;2.30;;;7.00;91.50;;;8.60;61.12;99265.50;3082116;46;20483;-65
2023/12/22 04:50:26;;;;;;;11.00;2.37;;;7.00;91.50;;;8.54;61.46;99266.28;3082283;46;20518;-65
2023/12/22 04:52:55;;;;;;;11.50;3.17;;;7.00;91.80;;;8.46;61.61;99277.75;3082396;46;20576;-65
2023/12/22 04:55:23;;;;;;;11.77;2.73;;;6.90;91.70;;;8.39;61.47;99255.16;3082855;46;20455;-64
2023/12/22 04:57:52;;;;;;;11.97;2.87;;;6.90;91.80;;;8.38;61.81;99240.44;3085194;46;20439;-65
2023/12/22 05:00:20;;;;;;;10.00;2.90;;;6.90;91.90;;;8.35;62.10;99244.25;3083126;46;20497;-66
2023/12/22 05:02:48;;;;;;;16.27;3.37;;;6.80;91.90;;;8.32;62.11;99262.19;3082495;46;20428;-66
2023/12/22 05:05:17;;;;;;;13.27;3.07;;;6.80;91.90;;;8.29;62.09;99246.84;3082007;46;20438;-64
2023/12/22 05:07:45;;;;;;;11.47;3.90;;;6.80;91.90;;;8.29;62.06;99257.34;3081827;46;20452;-66
2023/12/22 05:10:14;;;;;;;10.00;3.87;;;6.80;91.90;;;8.33;62.31;99275.09;3082316;46;20463;-66
2023/12/22 05:12:43;;;;;;;15.20;4.10;;;6.80;92.00;;;8.38;62.00;99266.63;3082694;46;20515;-65
2023/12/22 05:15:11;;;;;;;15.70;3.93;;;6.70;91.90;;;8.40;62.11;99285.59;3082384;46;20994;-66
2023/12/22 05:17:40;;;;;;;11.73;3.47;;;6.80;91.90;;;8.39;61.66;99269.06;3081700;46;20499;-65
2023/12/22 05:20:09;;;;;;;13.07;3.47;;;6.80;91.40;;;8.40;61.34;99269.88;3082221;46;21003;-65
2023/12/22 05:22:38;;;;;;;14.53;4.13;;;6.80;91.10;;;8.42;60.97;99278.34;3082006;46;20572;-65
2023/12/22 05:25:09;;;;;;;7.20;2.20;;;6.80;91.00;;;8.45;60.75;99277.97;3082426;46;20995;-64
2023/12/22 05:27:38;;;;;;;13.73;3.43;;;6.80;90.70;;;8.48;60.39;99282.81;3081891;46;20439;-65
2023/12/22 05:30:07;;;;;;;9.33;2.97;;;6.90;90.40;;;8.52;60.04;99279.59;3082167;46;21004;-66
2023/12/22 05:32:36;;;;;;;10.93;2.77;;;6.90;90.30;;;8.55;59.25;99275.78;3082630;46;21019;-65
2023/12/22 05:35:05;;;;;;;14.30;2.50;;;6.90;90.00;;;8.56;59.35;99290.47;3082032;46;20423;-65
2023/12/22 05:37:34;;;;;;;9.77;2.50;;;7.00;90.00;;;8.57;59.30;99281.63;3081619;46;20443;-65
2023/12/22 05:40:03;;;;;;;8.73;2.77;;;7.00;90.00;;;8.56;59.28;99280.00;3082226;46;20431;-65
2023/12/22 05:42:32;;;;;;;10.90;2.60;;;6.90;90.00;;;8.56;59.02;99280.81;3080911;46;20461;-64
2023/12/22 05:45:00;;;;;;;14.30;2.57;;;7.00;90.00;;;8.58;59.49;99283.25;3082439;46;20440;-64
2023/12/22 05:47:29;;;;;;;8.93;2.57;;;7.00;90.10;;;8.60;59.36;99281.25;3081840;46;20461;-63
2023/12/22 05:49:57;;;;;;;12.47;2.90;;;7.00;90.50;;;8.60;59.33;99302.22;3081489;46;20435;-64
2023/12/22 05:52:26;;;;;;;7.00;2.67;;;7.00;90.20;;;8.58;59.14;99288.50;3081925;46;20625;-65
2023/12/22 05:54:54;;;;;;;9.27;2.00;;;7.00;90.00;;;8.54;59.25;99305.59;3081818;46;21012;-65
2023/12/22 05:57:26;;;;;;;4.27;1.73;;;7.00;89.70;;;8.48;59.25;99314.28;3081523;46;20465;-64
2023/12/22 05:59:54;;;;;;;6.80;1.90;;;7.00;89.90;;;8.41;59.31;99329.97;3082182;46;21172;-65
2023/12/22 06:02:22;;;;;;;5.03;1.23;;;6.90;89.90;;;8.36;59.46;99334.19;3081863;46;20568;-66
2023/12/22 06:04:50;;;;;;;7.37;1.93;;;6.90;89.90;;;8.33;59.35;99334.56;3082096;46;21077;-65
2023/12/22 06:07:19;;;;;;;6.17;1.90;;;6.80;89.80;;;8.31;59.49;99333.97;3081171;46;21063;-64
2023/12/22 06:09:48;;;;;;;9.80;1.87;;;6.80;90.10;;;8.32;59.56;99344.25;3081829;46;20423;-65
2023/12/22 06:12:16;;;;;;;11.87;1.97;;;6.80;90.10;;;8.36;59.51;99348.09;3081987;46;21083;-65
2023/12/22 06:14:44;;;;;;;9.17;2.90;;;6.80;90.30;;;8.43;59.57;99361.25;3081468;46;20475;-65
2023/12/22 06:17:13;;;;;;;12.67;2.23;;;6.80;90.40;;;8.49;59.85;99368.31;3081950;46;20577;-66
2023/12/22 06:19:41;;;;;;;7.03;2.50;;;6.80;90.70;;;8.51;60.21;99369.75;3081740;46;20514;-63
2023/12/22 06:22:09;;;;;;;6.13;2.47;;;6.80;91.00;;;8.50;60.07;99375.19;3080793;46;20426;-65
2023/12/22 06:24:38;;;;;;;4.83;1.90;;;6.90;91.10;;;8.46;60.38;99369.50;3080954;46;20454;-64
2023/12/22 06:27:06;;;;;;;6.60;1.93;;;6.90;91.00;;;8.42;60.53;99389.25;3081495;46;20477;-66
2023/12/22 06:29:35;;;;;;;6.67;2.33;;;6.80;91.00;;;8.39;60.33;99384.41;3081591;46;20565;-65
2023/12/22 06:32:05;;;;;;;4.03;2.17;;;6.80;91.00;;;8.39;60.46;99383.59;3081376;46;20557;-65
2023/12/22 06:34:34;;;;;;;6.00;2.17;;;6.80;91.00;;;8.41;60.78;99394.72;3081519;46;20561;-65
2023/12/22 06:37:03;;;;;;;8.97;2.77;;;6.80;91.20;;;8.42;60.75;99393.69;3081377;46;20468;-64
2023/12/22 06:39:31;;;;;;;9.37;2.30;;;6.80;91.30;;;8.41;61.04;99397.31;3081270;46;20489;-63
2023/12/22 06:41:59;;;;;;;7.30;2.63;;;6.80;91.60;;;8.41;61.58;99392.09;3080962;46;20569;-65
2023/12/22 06:44:28;;;;;;;6.93;2.33;;;6.80;91.80;;;8.42;61.37;99378.78;3081366;46;20584;-65
2023/12/22 06:46:56;;;;;;;8.20;2.60;;;6.80;92.00;;;8.41;61.74;99371.94;3081059;46;21099;-65
2023/12/22 06:49:25;;;;;;;11.30;3.00;;;6.80;92.00;;;8.37;61.70;99385.63;3080928;46;20427;-65
2023/12/22 06:51:53;;;;;;;7.87;2.67;;;6.80;91.90;;;8.32;61.98;99388.78;3081438;46;20455;-65
2023/12/22 06:54:21;;;;;;;9.13;2.80;;;6.80;91.80;;;8.29;61.80;99398.88;3081301;46;21087;-65
2023/12/22 06:56:50;;;;;;;8.00;2.70;;;6.70;91.70;;;8.28;62.09;99399.84;3080848;46;20565;-61
2023/12/22 06:59:19;;;;;;;7.20;2.80;;;6.80;91.90;;;8.28;62.03;99408.53;3081447;46;20561;-66
2023/12/22 07:01:49;;;;;;;10.60;3.67;;;6.70;92.00;;;8.32;62.30;99409.75;3081004;46;20436;-64
2023/12/22 07:04:33;;;;;;;11.13;2.70;;;6.70;92.10;;;8.33;62.33;99421.06;3081375;46;21019;-64
2023/12/22 07:07:01;;;;;;;5.00;1.97;;;6.80;92.20;;;8.35;62.68;99435.59;3081172;46;20502;-65
2023/12/22 07:09:31;;;;;;;10.07;2.17;;;6.70;92.40;;;8.37;62.77;99438.03;3080874;46;20476;-65
2023/12/22 07:11:59;;;;;;;10.63;2.83;;;6.70;92.60;;;8.37;63.00;99436.22;3081090;46;20639;-66
2023/12/22 07:14:28;;;;;;;12.50;2.70;;;6.70;92.90;;;8.35;63.11;99435.59;3080505;46;20430;-65
2023/12/22 07:16:58;;;;;;;9.27;2.63;;;6.70;92.90;;;8.31;63.37;99428.31;3080441;46;20505;-65
2023/12/22 07:19:26;;;;;;;12.47;3.00;;;6.70;92.90;;;8.25;63.40;99444.78;3080691;46;21011;-66
2023/12/22 07:21:54;;;;;;;9.83;3.67;;;6.70;92.80;;;8.20;63.62;99448.78;3080746;46;20988;-65
2023/12/22 07:24:23;;;;;;;13.60;4.60;;;6.70;92.90;;;8.19;63.65;99455.03;3080801;46;20481;-66
2023/12/22 07:26:51;;;;;;;20.07;5.20;;;6.70;93.00;;;8.24;64.09;99469.38;3080519;46;20443;-65
2023/12/22 07:29:21;;;;;;;15.07;3.93;;;6.70;93.10;;;8.30;64.04;99473.84;3081000;46;20576;-64
2023/12/22 07:31:51;;;;;;;18.93;4.53;;;6.70;93.20;;;8.36;63.81;99475.72;3080788;46;20485;-66
2023/12/22 07:34:21;;;;;;;13.80;3.87;;;6.70;93.10;;;8.40;63.69;99484.81;3080816;46;20428;-66
2023/12/22 07:36:50;;;;;;;13.47;3.23;;;6.80;93.20;;;8.41;63.72;99482.03;3080702;46;20523;-66
2023/12/22 07:39:32;;;;;;;15.07;4.07;;;6.80;93.10;;;8.43;63.47;99484.44;3080849;46;20822;-67
2023/12/22 07:42:01;;;;;;;17.57;3.80;;;6.80;93.00;;;8.46;63.72;99494.56;3080167;46;20613;-65
2023/12/22 07:44:29;;;;;;;13.10;4.10;;;6.80;93.00;;;8.47;63.73;99483.06;3080343;43;21181;-65
2023/12/22 07:47:00;;;;;;;19.07;4.20;;;6.90;93.00;;;8.48;63.28;99474.19;3082535;46;20536;-64
2023/12/22 07:49:30;;;;;;;17.97;3.83;;;6.90;92.90;;;8.47;63.44;99465.53;3080634;46;20540;-66
2023/12/22 07:51:59;;;;;;;15.43;3.47;;;6.90;92.80;;;8.46;63.36;99468.34;3080916;46;20463;-66
2023/12/22 07:54:30;;;;;;;15.17;3.50;;;6.80;92.50;;;8.46;62.87;99463.09;3080938;46;20976;-65
2023/12/22 07:56:58;;;;;;;15.37;4.30;;;6.90;92.20;;;8.45;62.60;99456.22;3080079;46;20467;-62
2023/12/22 07:59:26;;;;;;;16.77;5.07;;;6.90;92.10;;;8.46;62.65;99455.25;3080786;46;20493;-64
2023/12/22 08:01:58;;;;;;;14.57;3.83;;;6.90;92.10;;;8.47;62.58;99454.22;3080333;46;20520;-64
2023/12/22 08:04:27;;;;;;;17.43;4.30;;;6.90;92.10;;;8.49;62.28;99462.69;3080644;46;20447;-64
2023/12/22 08:06:56;;;;;;;17.80;5.33;;;6.90;91.90;;;8.53;62.50;99477.88;3082098;46;20493;-61
2023/12/22 08:09:24;;;;;;;16.53;4.20;;;7.00;91.90;;;8.55;62.38;99488.16;3081998;46;20483;-65
2023/12/22 08:11:53;;;;;;;17.63;4.60;;;7.00;91.80;;;8.58;62.16;99490.41;3082536;46;20436;-65
2023/12/22 08:14:21;;;;;;;18.20;3.63;;;7.00;91.80;;;8.62;61.94;99484.59;3082839;46;20439;-65
2023/12/22 08:16:50;;;;;;;15.53;4.13;;;7.00;91.60;;;8.72;61.96;99497.34;3082387;46;20572;-64
2023/12/22 08:19:18;;;;;;;13.80;4.30;;;7.00;91.60;;;8.84;61.83;99503.69;3082938;46;21003;-65
2023/12/22 08:21:47;;;;;;;13.03;4.17;;;7.10;91.70;;;8.91;61.26;99499.28;3082676;46;20431;-62
2023/12/22 08:24:18;;;;;;;14.10;4.00;;;7.10;91.50;;;8.95;61.21;99489.19;3082831;46;20438;-66
2023/12/22 08:26:50;;;;;;;11.90;3.53;;;7.20;91.20;;;8.99;60.32;99493.84;3082112;46;20488;-65
2023/12/22 08:29:19;;;;;;;10.13;3.30;;;7.30;90.60;;;9.03;59.58;99500.34;3082504;46;20546;-63
2023/12/22 08:31:48;;;;;;;12.77;3.60;;;7.30;90.20;;;9.12;59.28;99500.97;3082629;46;20432;-64
2023/12/22 08:34:16;;;;;;;17.60;4.17;;;7.40;90.10;;;9.23;58.79;99519.59;3082727;46;21055;-66
2023/12/22 08:36:44;;;;;;;15.97;3.87;;;7.40;89.80;;;9.30;58.80;99524.88;3082277;46;20450;-65
2023/12/22 08:39:13;;;;;;;16.23;3.37;;;7.50;90.40;;;9.30;59.79;99515.19;3082504;46;20432;-66
2023/12/22 08:41:42;;;;;;;16.90;3.97;;;7.60;91.20;;;9.25;59.59;99507.06;3082398;46;20427;-64
2023/12/22 08:44:14;;;;;;;11.13;3.60;;;7.50;91.00;;;9.22;59.92;99523.22;3081989;43;20443;-65
2023/12/22 08:46:42;;;;;;;11.47;4.03;;;7.60;90.90;;;9.22;59.97;99523.22;3081618;46;20530;-61
2023/12/22 08:49:11;;;;;;;16.70;4.77;;;7.60;91.10;;;9.22;60.39;99511.94;3082038;46;20443;-66
2023/12/22 08:51:41;;;;;;;13.37;4.57;;;7.60;91.30;;;9.20;60.44;99514.72;3082869;46;20530;-65
2023/12/22 08:54:09;;;;;;;14.53;4.40;;;7.70;91.40;;;9.18;60.67;99515.94;3082358;46;20456;-64
2023/12/22 08:56:37;;;;;;;14.83;4.37;;;7.60;91.40;;;9.19;60.85;99528.88;3082097;46;21155;-65
2023/12/22 08:59:08;;;;;;;14.83;3.33;;;7.60;91.40;;;9.21;60.83;99526.84;3082814;46;20568;-66
2023/12/22 09:01:36;;;;;;;15.30;4.23;;;7.60;91.40;;;9.25;60.75;99520.19;3082400;46;21009;-67
2023/12/22 09:04:05;;;;;;;22.40;4.70;;;7.60;91.30;;;9.27;60.75;99539.19;3082639;46;20440;-65
2023/12/22 09:06:35;;;;;;;19.33;4.50;;;7.70;91.40;;;9.30;60.71;99536.19;3081968;46;20444;-65
2023/12/22 09:09:04;;;;;;;20.43;4.87;;;7.70;91.40;;;9.34;60.96;99526.91;3082292;46;20432;-66
2023/12/22 09:11:32;;;;;;;12.97;3.60;;;7.70;91.40;;;9.37;59.95;99537.00;3082791;46;20662;-64
2023/12/22 09:14:01;;;;;;;10.93;3.67;;;7.70;90.60;;;9.38;59.63;99556.22;3081923;46;20545;-66
2023/12/22 09:16:29;;;;;;;10.43;3.30;;;7.70;90.60;;;9.37;59.77;99555.41;3082547;46;21014;-63
2023/12/22 09:18:58;;;;;;;14.90;3.60;;;7.70;90.90;;;9.38;59.57;99549.16;3080677;46;20457;-64
2023/12/22 09:21:26;;;;;;;10.53;2.53;;;7.70;90.60;;;9.39;59.50;99528.94;3081427;46;20456;-64
2023/12/22 09:23:55;;;;;;;9.53;2.63;;;7.70;90.40;;;9.41;59.31;99522.47;3081156;46;20460;-63
2023/12/22 09:26:23;;;;;;;7.33;2.40;;;7.80;90.30;;;9.49;59.17;99540.69;3081852;46;20423;-65
2023/12/22 09:28:54;;;;;;;5.53;2.60;;;7.80;90.30;;;9.52;59.11;99556.06;3081787;46;20431;-66
2023/12/22 09:31:23;;;;;;;4.60;2.13;;;7.80;90.30;;;9.58;58.65;99558.91;3081177;46;20465;-66
2023/12/22 09:33:51;;;;;;;7.03;2.20;;;7.80;90.10;;;9.59;58.64;99571.84;3081928;46;20431;-65
2023/12/22 09:36:19;;;;;;;13.77;3.33;;;7.80;90.10;;;9.59;58.58;99574.47;3081502;46;20456;-66
2023/12/22 09:38:48;;;;;;;13.43;2.83;;;7.80;90.10;;;9.61;58.48;99569.00;3080939;46;20444;-65
2023/12/22 09:41:16;;;;;;;6.60;3.03;;;7.90;90.10;;;9.62;58.45;99581.16;3081433;46;20438;-66
2023/12/22 09:43:50;;;;;;;9.73;3.23;;;7.80;90.00;;;9.62;58.43;99560.13;3082331;46;20513;-64
2023/12/22 09:46:21;;;;;;;6.90;2.77;;;7.80;90.00;;;9.63;58.45;99567.03;3081815;46;20431;-65
2023/12/22 09:48:52;;;;;;;6.80;2.40;;;7.90;90.20;;;9.65;58.63;99554.50;3080833;46;20529;-63
2023/12/22 09:51:21;;;;;;;8.17;2.43;;;7.90;90.20;;;9.68;58.58;99575.09;3081767;46;20478;-66
2023/12/22 09:53:51;;;;;;;8.57;2.30;;;7.90;90.40;;;9.70;58.91;99567.84;3080869;46;21041;-65
2023/12/22 09:56:23;;;;;;;5.87;2.63;;;7.90;90.50;;;9.73;58.60;99556.94;3080575;46;21008;-65
2023/12/22 09:58:56;;;;;;;6.87;2.33;;;7.90;90.40;;;9.72;58.69;99565.84;3080784;46;20467;-64
2023/12/22 10:01:28;;;;;;;17.90;3.83;;;8.00;90.40;;;9.73;58.78;99577.94;3081030;46;20569;-66
2023/12/22 10:03:57;;;;;;;6.60;2.30;;;8.00;90.60;;;9.76;58.99;99573.13;3080819;46;21013;-64
2023/12/22 10:06:25;;;;;;;9.67;2.50;;;8.00;90.60;;;9.77;58.87;99579.19;3081172;46;20565;-68
2023/12/22 10:08:55;;;;;;;12.77;2.63;;;8.00;90.60;;;9.75;59.04;99586.44;3080999;46;20428;-61
2023/12/22 10:11:25;;;;;;;9.57;2.57;;;8.00;90.60;;;9.70;59.04;99578.38;3080925;46;20537;-65
2023/12/22 10:13:55;;;;;;;10.17;3.50;;;8.00;90.70;;;9.67;59.30;99578.75;3080325;46;21039;-64
2023/12/22 10:16:23;;;;;;;10.23;4.00;;;8.00;90.90;;;9.61;59.80;99569.00;3080705;46;20562;-63
2023/12/22 10:18:53;;;;;;;10.93;3.17;;;7.90;91.10;;;9.57;59.78;99588.81;3081398;46;20480;-65
2023/12/22 10:21:22;;;;;;;10.27;2.93;;;7.90;91.30;;;9.52;60.28;99608.59;3081340;46;21091;-65
2023/12/22 10:23:50;;;;;;;8.80;3.70;;;7.90;91.40;;;9.48;60.53;99602.09;3085439;46;20454;-67
2023/12/22 10:26:19;;;;;;;13.10;3.43;;;7.90;91.50;;;9.46;60.44;99596.22;3083680;46;20452;-64
2023/12/22 10:28:51;;;;;;;12.53;2.60;;;7.80;91.60;;;9.50;60.84;99592.22;3080841;46;20459;-66
2023/12/22 10:31:20;;;;;;;6.60;2.50;;;7.80;92.00;;;9.52;61.17;99592.84;3080968;46;21026;-66
2023/12/22 10:33:48;;;;;;;6.83;2.57;;;7.80;92.00;;;9.51;61.13;99593.00;3080819;46;21017;-63
2023/12/22 10:36:17;;;;;;;10.67;2.63;;;7.80;92.00;;;9.48;61.25;99607.34;3079940;46;20581;-65
2023/12/22 10:38:46;;;;;;;10.83;3.57;;;7.80;92.00;;;9.45;61.23;99599.88;3080710;46;20919;-65